Orenge 7 — JL6148 — position and weather

sailwx.info

Track history (hours):
 
Tides and Currents Weather Stations Pressure Air Temp Water Temp Dewpoint Dewpoint Depression Visibility Wind Speed Wind Dir Waves Ship Positions

Orenge 7

Last reported at 2014-Jul-24 01:31 UTC. Time now 2014-Jul-24 02:03 UTC.
Position N 34°37' E 135°26'.

Length 163 m; draft 4.9 m.

Type: Passenger vessel. MMSI: 431500186.

Date/timePositionNaut miles runAvg speedWind from/ knotsBaromVisibWave heightAir tempDewpointWater temp
2014-Jul-24 01:31N 34°37' E 135°26'0 0.0
2014-Jul-24 00:31N 34°37' E 135°26'0 0.0
2014-Jul-23 23:31N 34°37' E 135°26'0 0.0
2014-Jul-23 22:31N 34°37' E 135°26'0 0.0
2014-Jul-23 21:19N 34°37' E 135°26'6 8.3
2014-Jul-23 20:33N 34°36' E 135°18'1818.1
2014-Jul-23 19:33N 34°36' E 134°56'9 0.3
2014-Jul-22 15:07N 34°33' E 134°46'1018.2
2014-Jul-22 14:33N 34°37' E 134°57'1717.4
2014-Jul-22 13:33N 34°37' E 135°18'6 6.2
2014-Jul-22 12:32N 34°37' E 135°26'0 0.0
2014-Jul-22 11:32N 34°37' E 135°26'0 0.0
2014-Jul-22 10:32N 34°37' E 135°26'0 0.0
2014-Jul-22 09:32N 34°37' E 135°26'0 0.0
2014-Jul-22 08:20N 34°37' E 135°26'0 0.0
2014-Jul-22 07:32N 34°37' E 135°26'0 0.0
2014-Jul-22 06:32N 34°37' E 135°26'0 0.0
2014-Jul-22 05:23N 34°37' E 135°26'0 0.0
2014-Jul-22 04:11N 34°37' E 135°26'0 0.0
2014-Jul-22 03:29N 34°37' E 135°26'0 0.0
2014-Jul-22 02:29N 34°37' E 135°26'0 0.0
2014-Jul-22 01:29N 34°37' E 135°26'0 0.0
2014-Jul-22 00:29N 34°37' E 135°26'0 0.0
2014-Jul-21 23:29N 34°37' E 135°26'0 0.0
2014-Jul-21 22:29N 34°37' E 135°26'0 0.0
2014-Jul-21 21:15N 34°37' E 135°26'5 7.6
2014-Jul-21 20:33N 34°36' E 135°20'518.3
2014-Jul-21 20:18N 34°36' E 135°14'1317.7
2014-Jul-21 19:33N 34°37' E 134°58'2319.6
2014-Jul-21 18:23N 34°27' E 134°32'23 0.8
2014-Jul-20 14:33N 34°37' E 134°58'1817.7
2014-Jul-20 13:33N 34°37' E 135°19'5 4.9
2014-Jul-20 12:26N 34°37' E 135°26'0 0.0
2014-Jul-20 11:26N 34°37' E 135°26'0 0.0
2014-Jul-20 10:32N 34°37' E 135°26'0 0.0
2014-Jul-20 09:32N 34°37' E 135°26'0 0.0
2014-Jul-20 08:32N 34°37' E 135°26'0 0.0
2014-Jul-20 07:26N 34°37' E 135°26'0 0.0
2014-Jul-20 06:32N 34°37' E 135°26'0 0.0
2014-Jul-20 05:32N 34°37' E 135°26'0 0.0
2014-Jul-20 04:32N 34°37' E 135°26'0 0.0
2014-Jul-20 03:32N 34°37' E 135°26'0 0.0
2014-Jul-20 02:20N 34°37' E 135°26'0 0.0
2014-Jul-20 01:32N 34°37' E 135°26'0 0.0
2014-Jul-20 00:32N 34°37' E 135°26'0 0.0
2014-Jul-19 23:32N 34°37' E 135°26'0 0.0
2014-Jul-19 22:26N 34°37' E 135°26'0 0.0
2014-Jul-19 21:26N 34°37' E 135°26'5 6.1
2014-Jul-19 20:34N 34°36' E 135°20'1918.5
2014-Jul-19 19:33N 34°36' E 134°57'1 0.0
2014-Jul-18 14:33N 34°37' E 134°56'1817.8
2014-Jul-18 13:34N 34°36' E 135°18'7 6.5
2014-Jul-18 12:33N 34°37' E 135°26'0 0.0
2014-Jul-18 11:09N 34°37' E 135°26'0 0.0
2014-Jul-18 10:21N 34°37' E 135°26'0 0.0
2014-Jul-18 09:21N 34°37' E 135°26'0 0.0
2014-Jul-18 08:27N 34°37' E 135°26'0 0.0
2014-Jul-18 07:09N 34°37' E 135°26'0 0.0
2014-Jul-18 06:27N 34°37' E 135°26'0 0.0
2014-Jul-18 05:33N 34°37' E 135°26'0 0.0
2014-Jul-18 04:27N 34°37' E 135°26'0 0.0
2014-Jul-18 03:27N 34°37' E 135°26'0 0.0
2014-Jul-18 02:33N 34°37' E 135°26'0 0.0
2014-Jul-18 01:33N 34°37' E 135°26'0 0.0
2014-Jul-18 00:27N 34°37' E 135°26'0 0.0
2014-Jul-17 23:33N 34°37' E 135°26'0 0.0
2014-Jul-17 22:27N 34°37' E 135°26'0 0.0
2014-Jul-17 21:33N 34°37' E 135°26'6 5.6
2014-Jul-17 20:33N 34°36' E 135°19'1817.6
2014-Jul-17 19:33N 34°36' E 134°58'2 0.1
2014-Jul-16 14:33N 34°37' E 134°56'1919.0
2014-Jul-16 13:33N 34°36' E 135°19'6 4.4
2014-Jul-16 12:15N 34°37' E 135°26'0 0.0
2014-Jul-16 11:21N 34°37' E 135°26'0 0.0
2014-Jul-16 10:27N 34°37' E 135°26'0 0.0
2014-Jul-16 09:33N 34°37' E 135°26'0 0.0
2014-Jul-16 08:27N 34°37' E 135°26'0 0.0
2014-Jul-16 07:33N 34°37' E 135°26'0 0.0
2014-Jul-16 06:27N 34°37' E 135°26'0 0.0
2014-Jul-16 05:33N 34°37' E 135°26'0 0.0
2014-Jul-16 04:33N 34°37' E 135°26'0 0.0
2014-Jul-16 03:27N 34°37' E 135°26'0 0.0
2014-Jul-16 02:33N 34°37' E 135°26'0 0.0
2014-Jul-16 01:33N 34°37' E 135°26'0 0.0
2014-Jul-16 00:27N 34°37' E 135°26'0 0.0
2014-Jul-15 23:33N 34°37' E 135°26'0 0.0
2014-Jul-15 22:15N 34°37' E 135°26'0 0.0
2014-Jul-15 21:21N 34°37' E 135°26'5 6.3
2014-Jul-15 20:33N 34°36' E 135°20'1919.0
2014-Jul-15 19:34N 34°36' E 134°57'1 0.0
2014-Jul-14 14:33N 34°37' E 134°57'1919.2
2014-Jul-14 13:33N 34°37' E 135°20'5 2.1
2014-Jul-14 11:20N 34°37' E 135°26'0 0.0
2014-Jul-14 10:32N 34°37' E 135°26'0 0.0
2014-Jul-14 09:32N 34°37' E 135°26'0 0.0
2014-Jul-14 08:32N 34°37' E 135°26'0 0.0
2014-Jul-14 07:26N 34°37' E 135°26'0 0.0
2014-Jul-14 06:26N 34°37' E 135°26'0 0.0
2014-Jul-14 05:26N 34°37' E 135°26'0 0.0
2014-Jul-14 02:26N 34°37' E 135°26'  
Track history (hours):
 
Tides and Currents Weather Stations Pressure Air Temp Water Temp Dewpoint Dewpoint Depression Visibility Wind Speed Wind Dir Waves Ship Positions

Orenge 7

Last reported at 2014-Jul-24 01:31 UTC. Time now 2014-Jul-24 02:03 UTC.
Position N 34°37' E 135°26'.

Length 163 m; draft 4.9 m.

Type: Passenger vessel. MMSI: 431500186.

Date/timePositionNaut miles runAvg speedWind from/ knotsBaromVisibWave heightAir tempDewpointWater temp
2014-Jul-24 01:31N 34°37' E 135°26'0 0.0
2014-Jul-24 00:31N 34°37' E 135°26'0 0.0
2014-Jul-23 23:31N 34°37' E 135°26'0 0.0
2014-Jul-23 22:31N 34°37' E 135°26'0 0.0
2014-Jul-23 21:19N 34°37' E 135°26'6 8.3
2014-Jul-23 20:33N 34°36' E 135°18'1818.1
2014-Jul-23 19:33N 34°36' E 134°56'9 0.3
2014-Jul-22 15:07N 34°33' E 134°46'1018.2
2014-Jul-22 14:33N 34°37' E 134°57'1717.4
2014-Jul-22 13:33N 34°37' E 135°18'6 6.2
2014-Jul-22 12:32N 34°37' E 135°26'0 0.0
2014-Jul-22 11:32N 34°37' E 135°26'0 0.0
2014-Jul-22 10:32N 34°37' E 135°26'0 0.0
2014-Jul-22 09:32N 34°37' E 135°26'0 0.0
2014-Jul-22 08:20N 34°37' E 135°26'0 0.0
2014-Jul-22 07:32N 34°37' E 135°26'0 0.0
2014-Jul-22 06:32N 34°37' E 135°26'0 0.0
2014-Jul-22 05:23N 34°37' E 135°26'0 0.0
2014-Jul-22 04:11N 34°37' E 135°26'0 0.0
2014-Jul-22 03:29N 34°37' E 135°26'0 0.0
2014-Jul-22 02:29N 34°37' E 135°26'0 0.0
2014-Jul-22 01:29N 34°37' E 135°26'0 0.0
2014-Jul-22 00:29N 34°37' E 135°26'0 0.0
2014-Jul-21 23:29N 34°37' E 135°26'0 0.0
2014-Jul-21 22:29N 34°37' E 135°26'0 0.0
2014-Jul-21 21:15N 34°37' E 135°26'5 7.6
2014-Jul-21 20:33N 34°36' E 135°20'518.3
2014-Jul-21 20:18N 34°36' E 135°14'1317.7
2014-Jul-21 19:33N 34°37' E 134°58'2319.6
2014-Jul-21 18:23N 34°27' E 134°32'23 0.8
2014-Jul-20 14:33N 34°37' E 134°58'1817.7
2014-Jul-20 13:33N 34°37' E 135°19'5 4.9
2014-Jul-20 12:26N 34°37' E 135°26'0 0.0
2014-Jul-20 11:26N 34°37' E 135°26'0 0.0
2014-Jul-20 10:32N 34°37' E 135°26'0 0.0
2014-Jul-20 09:32N 34°37' E 135°26'0 0.0
2014-Jul-20 08:32N 34°37' E 135°26'0 0.0
2014-Jul-20 07:26N 34°37' E 135°26'0 0.0
2014-Jul-20 06:32N 34°37' E 135°26'0 0.0
2014-Jul-20 05:32N 34°37' E 135°26'0 0.0
2014-Jul-20 04:32N 34°37' E 135°26'0 0.0
2014-Jul-20 03:32N 34°37' E 135°26'0 0.0
2014-Jul-20 02:20N 34°37' E 135°26'0 0.0
2014-Jul-20 01:32N 34°37' E 135°26'0 0.0
2014-Jul-20 00:32N 34°37' E 135°26'0 0.0
2014-Jul-19 23:32N 34°37' E 135°26'0 0.0
2014-Jul-19 22:26N 34°37' E 135°26'0 0.0
2014-Jul-19 21:26N 34°37' E 135°26'5 6.1
2014-Jul-19 20:34N 34°36' E 135°20'1918.5
2014-Jul-19 19:33N 34°36' E 134°57'1 0.0
2014-Jul-18 14:33N 34°37' E 134°56'1817.8
2014-Jul-18 13:34N 34°36' E 135°18'7 6.5
2014-Jul-18 12:33N 34°37' E 135°26'0 0.0
2014-Jul-18 11:09N 34°37' E 135°26'0 0.0
2014-Jul-18 10:21N 34°37' E 135°26'0 0.0
2014-Jul-18 09:21N 34°37' E 135°26'0 0.0
2014-Jul-18 08:27N 34°37' E 135°26'0 0.0
2014-Jul-18 07:09N 34°37' E 135°26'0 0.0
2014-Jul-18 06:27N 34°37' E 135°26'0 0.0
2014-Jul-18 05:33N 34°37' E 135°26'0 0.0
2014-Jul-18 04:27N 34°37' E 135°26'0 0.0
2014-Jul-18 03:27N 34°37' E 135°26'0 0.0
2014-Jul-18 02:33N 34°37' E 135°26'0 0.0
2014-Jul-18 01:33N 34°37' E 135°26'0 0.0
2014-Jul-18 00:27N 34°37' E 135°26'0 0.0
2014-Jul-17 23:33N 34°37' E 135°26'0 0.0
2014-Jul-17 22:27N 34°37' E 135°26'0 0.0
2014-Jul-17 21:33N 34°37' E 135°26'6 5.6
2014-Jul-17 20:33N 34°36' E 135°19'1817.6
2014-Jul-17 19:33N 34°36' E 134°58'2 0.1
2014-Jul-16 14:33N 34°37' E 134°56'1919.0
2014-Jul-16 13:33N 34°36' E 135°19'6 4.4
2014-Jul-16 12:15N 34°37' E 135°26'0 0.0
2014-Jul-16 11:21N 34°37' E 135°26'0 0.0
2014-Jul-16 10:27N 34°37' E 135°26'0 0.0
2014-Jul-16 09:33N 34°37' E 135°26'0 0.0
2014-Jul-16 08:27N 34°37' E 135°26'0 0.0
2014-Jul-16 07:33N 34°37' E 135°26'0 0.0
2014-Jul-16 06:27N 34°37' E 135°26'0 0.0
2014-Jul-16 05:33N 34°37' E 135°26'0 0.0
2014-Jul-16 04:33N 34°37' E 135°26'0 0.0
2014-Jul-16 03:27N 34°37' E 135°26'0 0.0
2014-Jul-16 02:33N 34°37' E 135°26'0 0.0
2014-Jul-16 01:33N 34°37' E 135°26'0 0.0
2014-Jul-16 00:27N 34°37' E 135°26'0 0.0
2014-Jul-15 23:33N 34°37' E 135°26'0 0.0
2014-Jul-15 22:15N 34°37' E 135°26'0 0.0
2014-Jul-15 21:21N 34°37' E 135°26'5 6.3
2014-Jul-15 20:33N 34°36' E 135°20'1919.0
2014-Jul-15 19:34N 34°36' E 134°57'1 0.0
2014-Jul-14 14:33N 34°37' E 134°57'1919.2
2014-Jul-14 13:33N 34°37' E 135°20'5 2.1
2014-Jul-14 11:20N 34°37' E 135°26'0 0.0
2014-Jul-14 10:32N 34°37' E 135°26'0 0.0
2014-Jul-14 09:32N 34°37' E 135°26'0 0.0
2014-Jul-14 08:32N 34°37' E 135°26'0 0.0
2014-Jul-14 07:26N 34°37' E 135°26'0 0.0
2014-Jul-14 06:26N 34°37' E 135°26'0 0.0
2014-Jul-14 05:26N 34°37' E 135°26'0 0.0
2014-Jul-14 02:26N 34°37' E 135°26'  

Dump ship's entire track history